Springfield, MO

7:53 PM CDT on July 26, 2017 (GMT -0500)
Triple S Highland Gardens | | Change Station
Active Advisory: Heat Advisory

Elev 1280 ft 37.20 °N, 93.34 °W | Updated 6 seconds ago

Clear
Clear
88.0 °F
Feels Like 85 °F
N
2.7
Wind Variable Wind from ESE
Gusts 4.9 mph

Today
High -- | Low -- °F
--% Chance of Precip.
Yesterday
High -- | Low -- °F
Precip. -- in
Pressure 29.95 in
Visibility 10.0 miles
Clouds Clear
Heat Index 85 °F
Dew Point 46 °F
Humidity 23%
Rainfall 0.00 in
Snow Depth Not available.
6:13 AM 8:25 PM
Waxing Crescent, 16% visible
METAR KSGF 262352Z 22008KT 10SM CLR 33/22 A3000 RMK AO2 SLP142 T03280222 10356 20328 56007
Pressure 29.95 in
Visibility 10.0 miles
Clouds Clear
Heat Index 85 °F
Dew Point 46 °F
Humidity 23%
Rainfall 0.00 in
Snow Depth Not available.
6:13 AM 8:25 PM
Waxing Crescent, 16% visible
METAR KSGF 262352Z 22008KT 10SM CLR 33/22 A3000 RMK AO2 SLP142 T03280222 10356 20328 56007

Get Your Daily Forecast Email!

Thanks for signing up!

Be on the lookout for a verification email in your inbox.

You'll start receiving severe weather alerts in your inbox..

×

10-Day Weather Forecast

Almanac

Astronomy

Jul. 26, 2017 Rise Set
Actual Time
Civil Twilight
Nautical Twilight
Astronomical Twilight
Moon
Length of Visible Light
Length of Day
Tomorrow will be .
, % of the Moon is Illuminated

Today's Extremes

State Highs State Lows

Community

WunderPhotos

Category 6

Welcome to Category 6. This is the collective home for Weather Underground's featured writeups by Dr. Jeff Masters (right), Bob Henson (left), Chris Burt, and other regular contributors.

Nearby

Air Quality

  Air Quality AQ Index Pollutant
Not available.

Snow Depth

Station Depth Elevation

Earthquake Activity

City Distance Mag. Time & Date
Minimum magnitude displayed is 2.5.

Coastal Water Temperatures

Place Temperature

Stations

Nearby Weather Stations

Station Location Temp. Windchill Dew Point Humidity Wind Precip. Elev Updated Type
                   

Watches & Warnings

Heat Advisory
Issued: 7:49 PM CDT Jul. 26, 2017 – National Weather Service

... Heat advisory will expire at 8 PM CDT this evening...

Temperatures will continue to drop into the 80s this evening with
heat indicies dropping into the 90s.


Burchfield


749 PM CDT Wed Jul 26 2017

... Heat advisory will expire at 8 PM CDT this evening...

Temperatures will continue to drop into the 80s this evening with
heat indicies dropping into the 90s.


Burchfield